sensor_id;sensor_type;location;lat;lon;timestamp;temperature;humidity
40636;DHT22;26642;55.766;37.828;2022-08-21T00:02:02;19.00;54.10
40636;DHT22;26642;55.766;37.828;2022-08-21T00:04:29;19.00;54.30
40636;DHT22;26642;55.766;37.828;2022-08-21T00:06:56;18.90;54.30
40636;DHT22;26642;55.766;37.828;2022-08-21T00:09:22;19.00;54.60
40636;DHT22;26642;55.766;37.828;2022-08-21T00:11:48;18.90;54.50
40636;DHT22;26642;55.766;37.828;2022-08-21T00:14:14;18.90;54.60
40636;DHT22;26642;55.766;37.828;2022-08-21T00:16:40;18.90;54.70
40636;DHT22;26642;55.766;37.828;2022-08-21T00:19:07;18.90;54.70
40636;DHT22;26642;55.766;37.828;2022-08-21T00:21:35;18.80;54.60
40636;DHT22;26642;55.766;37.828;2022-08-21T00:24:01;18.80;54.60
40636;DHT22;26642;55.766;37.828;2022-08-21T00:26:27;18.70;54.70
40636;DHT22;26642;55.766;37.828;2022-08-21T00:28:54;18.80;54.80
40636;DHT22;26642;55.766;37.828;2022-08-21T00:31:19;18.80;54.80
40636;DHT22;26642;55.766;37.828;2022-08-21T00:33:46;18.80;54.80
40636;DHT22;26642;55.766;37.828;2022-08-21T00:36:12;18.70;54.80
40636;DHT22;26642;55.766;37.828;2022-08-21T00:38:39;18.70;54.90
40636;DHT22;26642;55.766;37.828;2022-08-21T00:41:07;18.70;54.90
40636;DHT22;26642;55.766;37.828;2022-08-21T00:43:36;18.70;54.90
40636;DHT22;26642;55.766;37.828;2022-08-21T00:46:04;18.60;55.30
40636;DHT22;26642;55.766;37.828;2022-08-21T00:48:31;18.60;55.10
40636;DHT22;26642;55.766;37.828;2022-08-21T00:51:11;18.60;54.90
40636;DHT22;26642;55.766;37.828;2022-08-21T00:53:41;18.60;55.00
40636;DHT22;26642;55.766;37.828;2022-08-21T00:56:09;18.60;55.10
40636;DHT22;26642;55.766;37.828;2022-08-21T00:58:37;18.50;55.20
40636;DHT22;26642;55.766;37.828;2022-08-21T01:01:05;18.60;55.20
40636;DHT22;26642;55.766;37.828;2022-08-21T01:03:31;18.50;55.20
40636;DHT22;26642;55.766;37.828;2022-08-21T01:05:57;18.50;55.20
40636;DHT22;26642;55.766;37.828;2022-08-21T01:08:24;18.50;55.30
40636;DHT22;26642;55.766;37.828;2022-08-21T01:10:52;18.40;55.40
40636;DHT22;26642;55.766;37.828;2022-08-21T01:13:25;18.40;55.50
40636;DHT22;26642;55.766;37.828;2022-08-21T01:15:54;18.40;55.50
40636;DHT22;26642;55.766;37.828;2022-08-21T01:18:20;18.30;55.60
40636;DHT22;26642;55.766;37.828;2022-08-21T01:23:35;18.40;55.70
40636;DHT22;26642;55.766;37.828;2022-08-21T01:26:02;18.30;55.80
40636;DHT22;26642;55.766;37.828;2022-08-21T01:28:32;18.30;55.80
40636;DHT22;26642;55.766;37.828;2022-08-21T01:31:00;18.20;55.70
40636;DHT22;26642;55.766;37.828;2022-08-21T01:33:27;18.20;55.80
40636;DHT22;26642;55.766;37.828;2022-08-21T01:35:52;18.20;55.90
40636;DHT22;26642;55.766;37.828;2022-08-21T01:38:19;18.20;55.70
40636;DHT22;26642;55.766;37.828;2022-08-21T01:40:44;18.20;55.70
40636;DHT22;26642;55.766;37.828;2022-08-21T01:43:11;18.20;55.70
40636;DHT22;26642;55.766;37.828;2022-08-21T01:45:37;18.20;55.70
40636;DHT22;26642;55.766;37.828;2022-08-21T01:48:03;18.20;55.70
40636;DHT22;26642;55.766;37.828;2022-08-21T01:50:29;18.20;55.80
40636;DHT22;26642;55.766;37.828;2022-08-21T01:52:55;18.10;55.90
40636;DHT22;26642;55.766;37.828;2022-08-21T01:55:22;18.10;56.20
40636;DHT22;26642;55.766;37.828;2022-08-21T01:57:48;18.10;56.30
40636;DHT22;26642;55.766;37.828;2022-08-21T02:00:16;18.00;56.30
40636;DHT22;26642;55.766;37.828;2022-08-21T02:02:43;18.00;56.40
40636;DHT22;26642;55.766;37.828;2022-08-21T02:05:11;18.00;56.50
40636;DHT22;26642;55.766;37.828;2022-08-21T02:07:39;18.00;56.50
40636;DHT22;26642;55.766;37.828;2022-08-21T02:10:07;18.00;56.50
40636;DHT22;26642;55.766;37.828;2022-08-21T02:12:35;17.90;56.60
40636;DHT22;26642;55.766;37.828;2022-08-21T02:15:01;18.00;56.80
40636;DHT22;26642;55.766;37.828;2022-08-21T02:17:44;17.90;56.50
40636;DHT22;26642;55.766;37.828;2022-08-21T02:20:21;18.00;56.40
40636;DHT22;26642;55.766;37.828;2022-08-21T02:22:47;18.00;56.30
40636;DHT22;26642;55.766;37.828;2022-08-21T02:25:13;18.00;56.20
40636;DHT22;26642;55.766;37.828;2022-08-21T02:27:41;18.00;56.10
40636;DHT22;26642;55.766;37.828;2022-08-21T02:30:10;18.00;56.10
40636;DHT22;26642;55.766;37.828;2022-08-21T02:32:36;18.00;56.00
40636;DHT22;26642;55.766;37.828;2022-08-21T02:35:02;18.00;55.90
40636;DHT22;26642;55.766;37.828;2022-08-21T02:37:28;18.10;55.80
40636;DHT22;26642;55.766;37.828;2022-08-21T02:39:54;18.10;55.70
40636;DHT22;26642;55.766;37.828;2022-08-21T02:42:20;18.10;55.70
40636;DHT22;26642;55.766;37.828;2022-08-21T02:44:46;18.10;55.60
40636;DHT22;26642;55.766;37.828;2022-08-21T02:47:14;18.20;55.60
40636;DHT22;26642;55.766;37.828;2022-08-21T02:49:40;18.10;55.50
40636;DHT22;26642;55.766;37.828;2022-08-21T02:52:05;18.20;55.40
40636;DHT22;26642;55.766;37.828;2022-08-21T02:54:32;18.10;55.40
40636;DHT22;26642;55.766;37.828;2022-08-21T02:56:58;18.10;55.50
40636;DHT22;26642;55.766;37.828;2022-08-21T02:59:24;18.10;55.40
40636;DHT22;26642;55.766;37.828;2022-08-21T03:01:50;18.10;55.30
40636;DHT22;26642;55.766;37.828;2022-08-21T03:04:16;18.10;55.50
40636;DHT22;26642;55.766;37.828;2022-08-21T03:06:42;18.10;55.50
40636;DHT22;26642;55.766;37.828;2022-08-21T03:09:08;18.10;55.80
40636;DHT22;26642;55.766;37.828;2022-08-21T03:11:34;18.10;55.70
40636;DHT22;26642;55.766;37.828;2022-08-21T03:14:01;18.10;55.70
40636;DHT22;26642;55.766;37.828;2022-08-21T03:16:27;18.10;55.50
40636;DHT22;26642;55.766;37.828;2022-08-21T03:18:53;18.10;55.50
40636;DHT22;26642;55.766;37.828;2022-08-21T03:21:18;18.10;55.60
40636;DHT22;26642;55.766;37.828;2022-08-21T03:23:45;18.00;55.40
40636;DHT22;26642;55.766;37.828;2022-08-21T03:26:11;18.10;55.60
40636;DHT22;26642;55.766;37.828;2022-08-21T03:28:37;18.00;55.80
40636;DHT22;26642;55.766;37.828;2022-08-21T03:31:03;18.10;55.80
40636;DHT22;26642;55.766;37.828;2022-08-21T03:33:30;18.10;55.70
40636;DHT22;26642;55.766;37.828;2022-08-21T03:36:04;18.10;55.80
40636;DHT22;26642;55.766;37.828;2022-08-21T03:38:32;18.10;55.90
40636;DHT22;26642;55.766;37.828;2022-08-21T03:40:59;18.10;55.60
40636;DHT22;26642;55.766;37.828;2022-08-21T03:43:26;18.10;55.70
40636;DHT22;26642;55.766;37.828;2022-08-21T03:45:52;18.10;55.90
40636;DHT22;26642;55.766;37.828;2022-08-21T03:48:19;18.10;55.70
40636;DHT22;26642;55.766;37.828;2022-08-21T03:50:45;18.10;55.90
40636;DHT22;26642;55.766;37.828;2022-08-21T03:53:14;18.20;55.90
40636;DHT22;26642;55.766;37.828;2022-08-21T03:55:40;18.20;55.70
40636;DHT22;26642;55.766;37.828;2022-08-21T03:58:07;18.20;55.40
40636;DHT22;26642;55.766;37.828;2022-08-21T04:00:33;18.30;55.50
40636;DHT22;26642;55.766;37.828;2022-08-21T04:02:59;18.30;55.30
40636;DHT22;26642;55.766;37.828;2022-08-21T04:05:26;18.30;55.20
40636;DHT22;26642;55.766;37.828;2022-08-21T04:08:01;18.30;55.30
40636;DHT22;26642;55.766;37.828;2022-08-21T04:10:29;18.40;55.20
40636;DHT22;26642;55.766;37.828;2022-08-21T04:12:56;18.40;56.20
40636;DHT22;26642;55.766;37.828;2022-08-21T04:15:24;18.40;55.40
40636;DHT22;26642;55.766;37.828;2022-08-21T04:17:50;18.40;55.40
40636;DHT22;26642;55.766;37.828;2022-08-21T04:20:17;18.50;55.20
40636;DHT22;26642;55.766;37.828;2022-08-21T04:22:43;18.50;55.40
40636;DHT22;26642;55.766;37.828;2022-08-21T04:25:11;18.50;55.00
40636;DHT22;26642;55.766;37.828;2022-08-21T04:27:37;18.50;55.50
40636;DHT22;26642;55.766;37.828;2022-08-21T04:30:06;18.60;55.30
40636;DHT22;26642;55.766;37.828;2022-08-21T04:32:32;18.70;55.20
40636;DHT22;26642;55.766;37.828;2022-08-21T04:35:08;18.70;54.90
40636;DHT22;26642;55.766;37.828;2022-08-21T04:37:35;18.90;54.60
40636;DHT22;26642;55.766;37.828;2022-08-21T04:40:01;18.90;54.50
40636;DHT22;26642;55.766;37.828;2022-08-21T04:42:28;19.00;54.50
40636;DHT22;26642;55.766;37.828;2022-08-21T04:44:55;19.00;54.30
40636;DHT22;26642;55.766;37.828;2022-08-21T04:47:22;19.10;54.10
40636;DHT22;26642;55.766;37.828;2022-08-21T04:49:49;19.20;54.10
40636;DHT22;26642;55.766;37.828;2022-08-21T04:52:20;19.30;54.00
40636;DHT22;26642;55.766;37.828;2022-08-21T04:54:47;19.30;53.30
40636;DHT22;26642;55.766;37.828;2022-08-21T04:57:15;19.40;53.40
40636;DHT22;26642;55.766;37.828;2022-08-21T04:59:46;19.50;52.90
40636;DHT22;26642;55.766;37.828;2022-08-21T05:02:13;19.60;52.50
40636;DHT22;26642;55.766;37.828;2022-08-21T05:04:49;19.70;52.50
40636;DHT22;26642;55.766;37.828;2022-08-21T05:07:20;19.80;52.60
40636;DHT22;26642;55.766;37.828;2022-08-21T05:09:48;19.90;52.20
40636;DHT22;26642;55.766;37.828;2022-08-21T05:12:14;20.10;51.80
40636;DHT22;26642;55.766;37.828;2022-08-21T05:14:40;20.10;51.30
40636;DHT22;26642;55.766;37.828;2022-08-21T05:17:08;20.30;50.90
40636;DHT22;26642;55.766;37.828;2022-08-21T05:19:34;20.50;50.80
40636;DHT22;26642;55.766;37.828;2022-08-21T05:22:00;20.70;50.90
40636;DHT22;26642;55.766;37.828;2022-08-21T05:24:27;20.80;50.50
40636;DHT22;26642;55.766;37.828;2022-08-21T05:26:53;21.00;50.00
40636;DHT22;26642;55.766;37.828;2022-08-21T05:29:19;21.10;49.50
40636;DHT22;26642;55.766;37.828;2022-08-21T05:31:47;21.30;49.20
40636;DHT22;26642;55.766;37.828;2022-08-21T05:34:17;21.40;48.70
40636;DHT22;26642;55.766;37.828;2022-08-21T05:36:43;21.50;48.70
40636;DHT22;26642;55.766;37.828;2022-08-21T05:39:10;21.70;48.60
40636;DHT22;26642;55.766;37.828;2022-08-21T05:41:35;21.80;47.50
40636;DHT22;26642;55.766;37.828;2022-08-21T05:44:02;21.90;47.50
40636;DHT22;26642;55.766;37.828;2022-08-21T05:46:28;22.00;47.30
40636;DHT22;26642;55.766;37.828;2022-08-21T05:48:53;22.20;47.40
40636;DHT22;26642;55.766;37.828;2022-08-21T05:51:20;22.30;46.90
40636;DHT22;26642;55.766;37.828;2022-08-21T05:53:46;22.50;46.50
40636;DHT22;26642;55.766;37.828;2022-08-21T05:56:12;22.60;46.00
40636;DHT22;26642;55.766;37.828;2022-08-21T05:58:39;22.70;45.70
40636;DHT22;26642;55.766;37.828;2022-08-21T06:01:05;22.80;46.00
40636;DHT22;26642;55.766;37.828;2022-08-21T06:03:38;22.90;45.20
40636;DHT22;26642;55.766;37.828;2022-08-21T06:06:05;23.00;45.10
40636;DHT22;26642;55.766;37.828;2022-08-21T06:08:31;23.20;44.90
40636;DHT22;26642;55.766;37.828;2022-08-21T06:11:00;23.40;44.20
40636;DHT22;26642;55.766;37.828;2022-08-21T06:13:26;23.40;44.50
40636;DHT22;26642;55.766;37.828;2022-08-21T06:16:10;23.50;44.20
40636;DHT22;26642;55.766;37.828;2022-08-21T06:18:38;23.60;43.40
40636;DHT22;26642;55.766;37.828;2022-08-21T06:21:05;23.60;43.10
40636;DHT22;26642;55.766;37.828;2022-08-21T06:23:31;23.60;42.80
40636;DHT22;26642;55.766;37.828;2022-08-21T06:25:58;23.60;42.90
40636;DHT22;26642;55.766;37.828;2022-08-21T06:28:24;23.60;42.70
40636;DHT22;26642;55.766;37.828;2022-08-21T06:30:50;23.80;42.60
40636;DHT22;26642;55.766;37.828;2022-08-21T06:33:16;23.90;42.70
40636;DHT22;26642;55.766;37.828;2022-08-21T06:35:41;24.00;43.00
40636;DHT22;26642;55.766;37.828;2022-08-21T06:38:08;24.20;42.60
40636;DHT22;26642;55.766;37.828;2022-08-21T06:40:34;24.20;41.90
40636;DHT22;26642;55.766;37.828;2022-08-21T06:43:13;24.30;42.10
40636;DHT22;26642;55.766;37.828;2022-08-21T06:45:39;24.30;42.20
40636;DHT22;26642;55.766;37.828;2022-08-21T06:48:05;24.40;42.10
40636;DHT22;26642;55.766;37.828;2022-08-21T06:50:33;24.50;42.10
40636;DHT22;26642;55.766;37.828;2022-08-21T06:53:07;24.50;41.70
40636;DHT22;26642;55.766;37.828;2022-08-21T06:55:34;24.40;41.50
40636;DHT22;26642;55.766;37.828;2022-08-21T06:58:00;24.50;41.30
40636;DHT22;26642;55.766;37.828;2022-08-21T07:00:26;24.60;41.50
40636;DHT22;26642;55.766;37.828;2022-08-21T07:02:52;24.60;41.20
40636;DHT22;26642;55.766;37.828;2022-08-21T07:05:18;24.70;40.50
40636;DHT22;26642;55.766;37.828;2022-08-21T07:07:45;24.70;40.40
40636;DHT22;26642;55.766;37.828;2022-08-21T07:10:11;24.70;40.10
40636;DHT22;26642;55.766;37.828;2022-08-21T07:12:38;24.80;40.60
40636;DHT22;26642;55.766;37.828;2022-08-21T07:15:04;24.80;40.60
40636;DHT22;26642;55.766;37.828;2022-08-21T07:17:30;24.80;39.30
40636;DHT22;26642;55.766;37.828;2022-08-21T07:19:56;24.80;39.40
40636;DHT22;26642;55.766;37.828;2022-08-21T07:22:23;24.80;39.90
40636;DHT22;26642;55.766;37.828;2022-08-21T07:24:49;24.90;39.30
40636;DHT22;26642;55.766;37.828;2022-08-21T07:27:15;24.90;39.30
40636;DHT22;26642;55.766;37.828;2022-08-21T07:29:41;24.90;39.00
40636;DHT22;26642;55.766;37.828;2022-08-21T07:32:07;24.90;39.80
40636;DHT22;26642;55.766;37.828;2022-08-21T07:34:33;25.00;39.80
40636;DHT22;26642;55.766;37.828;2022-08-21T07:36:59;25.00;39.70
40636;DHT22;26642;55.766;37.828;2022-08-21T07:39:25;25.00;39.30
40636;DHT22;26642;55.766;37.828;2022-08-21T07:41:51;24.90;38.50
40636;DHT22;26642;55.766;37.828;2022-08-21T07:44:17;24.90;38.80
40636;DHT22;26642;55.766;37.828;2022-08-21T07:46:43;24.90;39.20
40636;DHT22;26642;55.766;37.828;2022-08-21T07:49:09;25.00;38.90
40636;DHT22;26642;55.766;37.828;2022-08-21T07:51:35;25.00;38.20
40636;DHT22;26642;55.766;37.828;2022-08-21T07:54:01;24.90;38.30
40636;DHT22;26642;55.766;37.828;2022-08-21T07:56:28;24.90;38.00
40636;DHT22;26642;55.766;37.828;2022-08-21T07:58:55;24.90;38.30
40636;DHT22;26642;55.766;37.828;2022-08-21T08:01:23;24.90;37.70
40636;DHT22;26642;55.766;37.828;2022-08-21T08:03:49;24.90;37.80
40636;DHT22;26642;55.766;37.828;2022-08-21T08:06:16;24.90;37.50
40636;DHT22;26642;55.766;37.828;2022-08-21T08:08:44;24.80;37.40
40636;DHT22;26642;55.766;37.828;2022-08-21T08:11:12;24.90;38.10
40636;DHT22;26642;55.766;37.828;2022-08-21T08:13:47;24.80;38.30
40636;DHT22;26642;55.766;37.828;2022-08-21T08:16:15;24.80;37.80
40636;DHT22;26642;55.766;37.828;2022-08-21T08:18:41;24.80;38.00
40636;DHT22;26642;55.766;37.828;2022-08-21T08:21:08;24.70;37.20
40636;DHT22;26642;55.766;37.828;2022-08-21T08:23:35;24.70;37.50
40636;DHT22;26642;55.766;37.828;2022-08-21T08:26:01;24.70;37.50
40636;DHT22;26642;55.766;37.828;2022-08-21T08:28:29;24.70;37.10
40636;DHT22;26642;55.766;37.828;2022-08-21T08:30:58;24.70;37.10
40636;DHT22;26642;55.766;37.828;2022-08-21T08:33:24;24.80;37.40
40636;DHT22;26642;55.766;37.828;2022-08-21T08:35:51;24.80;37.20
40636;DHT22;26642;55.766;37.828;2022-08-21T08:38:18;24.80;37.40
40636;DHT22;26642;55.766;37.828;2022-08-21T08:43:33;24.90;37.90
40636;DHT22;26642;55.766;37.828;2022-08-21T08:46:04;25.00;37.50
40636;DHT22;26642;55.766;37.828;2022-08-21T08:51:19;25.00;36.00
40636;DHT22;26642;55.766;37.828;2022-08-21T08:53:55;25.00;36.60
40636;DHT22;26642;55.766;37.828;2022-08-21T08:56:30;25.00;35.50
40636;DHT22;26642;55.766;37.828;2022-08-21T08:59:11;25.00;35.40
40636;DHT22;26642;55.766;37.828;2022-08-21T09:01:39;25.00;35.00
40636;DHT22;26642;55.766;37.828;2022-08-21T09:04:05;25.00;35.30
40636;DHT22;26642;55.766;37.828;2022-08-21T09:06:49;25.00;35.20
40636;DHT22;26642;55.766;37.828;2022-08-21T09:09:29;25.10;35.30
40636;DHT22;26642;55.766;37.828;2022-08-21T09:11:59;25.10;35.70
40636;DHT22;26642;55.766;37.828;2022-08-21T09:17:37;25.10;35.30
40636;DHT22;26642;55.766;37.828;2022-08-21T09:20:19;25.10;35.30
40636;DHT22;26642;55.766;37.828;2022-08-21T09:25:53;25.20;35.00
40636;DHT22;26642;55.766;37.828;2022-08-21T09:28:21;25.10;34.60
40636;DHT22;26642;55.766;37.828;2022-08-21T09:30:47;25.10;35.00
40636;DHT22;26642;55.766;37.828;2022-08-21T09:33:14;25.10;35.00
40636;DHT22;26642;55.766;37.828;2022-08-21T09:35:51;25.10;35.20
40636;DHT22;26642;55.766;37.828;2022-08-21T09:38:30;25.20;34.10
40636;DHT22;26642;55.766;37.828;2022-08-21T09:41:04;25.20;33.90
40636;DHT22;26642;55.766;37.828;2022-08-21T09:43:31;25.20;34.30
40636;DHT22;26642;55.766;37.828;2022-08-21T09:46:10;25.20;34.40
40636;DHT22;26642;55.766;37.828;2022-08-21T09:48:47;25.20;33.80
40636;DHT22;26642;55.766;37.828;2022-08-21T09:51:26;25.20;33.40
40636;DHT22;26642;55.766;37.828;2022-08-21T09:54:16;25.20;34.30
40636;DHT22;26642;55.766;37.828;2022-08-21T09:59:50;25.30;33.50
40636;DHT22;26642;55.766;37.828;2022-08-21T10:02:27;25.20;33.90
40636;DHT22;26642;55.766;37.828;2022-08-21T10:04:57;25.20;34.00
40636;DHT22;26642;55.766;37.828;2022-08-21T10:07:26;25.20;34.10
40636;DHT22;26642;55.766;37.828;2022-08-21T10:26:45;25.40;33.90
40636;DHT22;26642;55.766;37.828;2022-08-21T10:29:39;25.50;33.80
40636;DHT22;26642;55.766;37.828;2022-08-21T10:35:17;25.60;34.30
40636;DHT22;26642;55.766;37.828;2022-08-21T10:37:53;25.60;33.80
40636;DHT22;26642;55.766;37.828;2022-08-21T10:40:26;25.60;34.70
40636;DHT22;26642;55.766;37.828;2022-08-21T10:43:14;25.60;34.30
40636;DHT22;26642;55.766;37.828;2022-08-21T10:45:52;25.70;34.90
40636;DHT22;26642;55.766;37.828;2022-08-21T10:48:36;25.70;35.40
40636;DHT22;26642;55.766;37.828;2022-08-21T10:51:24;25.70;34.40
40636;DHT22;26642;55.766;37.828;2022-08-21T10:54:07;25.70;35.20
40636;DHT22;26642;55.766;37.828;2022-08-21T10:56:40;25.70;35.00
40636;DHT22;26642;55.766;37.828;2022-08-21T10:59:38;25.70;36.30
40636;DHT22;26642;55.766;37.828;2022-08-21T11:05:17;25.70;34.90
40636;DHT22;26642;55.766;37.828;2022-08-21T11:07:55;25.70;35.50
40636;DHT22;26642;55.766;37.828;2022-08-21T11:10:29;25.80;35.00
40636;DHT22;26642;55.766;37.828;2022-08-21T11:13:04;25.80;35.60
40636;DHT22;26642;55.766;37.828;2022-08-21T11:15:50;25.80;35.30
40636;DHT22;26642;55.766;37.828;2022-08-21T11:21:18;25.80;34.40
40636;DHT22;26642;55.766;37.828;2022-08-21T11:23:53;25.80;33.50
40636;DHT22;26642;55.766;37.828;2022-08-21T11:26:51;25.80;33.60
40636;DHT22;26642;55.766;37.828;2022-08-21T11:29:21;25.70;33.20
40636;DHT22;26642;55.766;37.828;2022-08-21T11:31:58;25.70;33.30
40636;DHT22;26642;55.766;37.828;2022-08-21T11:34:48;25.70;33.50
40636;DHT22;26642;55.766;37.828;2022-08-21T11:40:10;25.70;34.10
40636;DHT22;26642;55.766;37.828;2022-08-21T11:45:27;25.70;33.30
40636;DHT22;26642;55.766;37.828;2022-08-21T11:48:27;25.70;33.80
40636;DHT22;26642;55.766;37.828;2022-08-21T11:50:59;25.60;33.60
40636;DHT22;26642;55.766;37.828;2022-08-21T11:53:33;25.60;34.00
40636;DHT22;26642;55.766;37.828;2022-08-21T11:56:13;25.60;33.70
40636;DHT22;26642;55.766;37.828;2022-08-21T11:58:47;25.60;33.90
40636;DHT22;26642;55.766;37.828;2022-08-21T12:01:19;25.60;33.50
40636;DHT22;26642;55.766;37.828;2022-08-21T12:04:07;25.50;33.40
40636;DHT22;26642;55.766;37.828;2022-08-21T12:06:37;25.50;33.50
40636;DHT22;26642;55.766;37.828;2022-08-21T12:12:05;25.40;32.90
40636;DHT22;26642;55.766;37.828;2022-08-21T12:14:47;25.40;33.50
40636;DHT22;26642;55.766;37.828;2022-08-21T12:17:36;25.40;33.50
40636;DHT22;26642;55.766;37.828;2022-08-21T12:25:39;25.30;33.90
40636;DHT22;26642;55.766;37.828;2022-08-21T12:28:12;25.20;34.10
40636;DHT22;26642;55.766;37.828;2022-08-21T12:30:45;25.30;34.40
40636;DHT22;26642;55.766;37.828;2022-08-21T12:33:30;25.20;34.40
40636;DHT22;26642;55.766;37.828;2022-08-21T12:36:20;25.20;34.60
40636;DHT22;26642;55.766;37.828;2022-08-21T12:38:56;25.20;34.60
40636;DHT22;26642;55.766;37.828;2022-08-21T12:44:58;25.30;34.90
40636;DHT22;26642;55.766;37.828;2022-08-21T12:50:35;25.30;35.80
40636;DHT22;26642;55.766;37.828;2022-08-21T12:53:21;25.30;35.60
40636;DHT22;26642;55.766;37.828;2022-08-21T12:55:52;25.30;35.70
40636;DHT22;26642;55.766;37.828;2022-08-21T12:58:33;25.30;36.10
40636;DHT22;26642;55.766;37.828;2022-08-21T13:01:06;25.40;36.30
40636;DHT22;26642;55.766;37.828;2022-08-21T13:03:40;25.30;36.00
40636;DHT22;26642;55.766;37.828;2022-08-21T13:06:07;25.40;36.20
40636;DHT22;26642;55.766;37.828;2022-08-21T13:08:40;25.30;35.90
40636;DHT22;26642;55.766;37.828;2022-08-21T13:11:07;25.40;36.70
40636;DHT22;26642;55.766;37.828;2022-08-21T13:13:33;25.40;37.20
40636;DHT22;26642;55.766;37.828;2022-08-21T13:16:04;25.40;36.60
40636;DHT22;26642;55.766;37.828;2022-08-21T13:18:34;25.40;36.60
40636;DHT22;26642;55.766;37.828;2022-08-21T13:21:12;25.40;36.70
40636;DHT22;26642;55.766;37.828;2022-08-21T13:23:39;25.40;37.00
40636;DHT22;26642;55.766;37.828;2022-08-21T13:26:34;25.40;36.90
40636;DHT22;26642;55.766;37.828;2022-08-21T13:29:11;25.30;36.50
40636;DHT22;26642;55.766;37.828;2022-08-21T13:31:55;25.30;36.50
40636;DHT22;26642;55.766;37.828;2022-08-21T13:34:29;25.30;36.80
40636;DHT22;26642;55.766;37.828;2022-08-21T13:36:59;25.30;37.10
40636;DHT22;26642;55.766;37.828;2022-08-21T13:39:26;25.40;37.60
40636;DHT22;26642;55.766;37.828;2022-08-21T13:42:01;25.30;37.30
40636;DHT22;26642;55.766;37.828;2022-08-21T13:47:00;25.30;37.90
40636;DHT22;26642;55.766;37.828;2022-08-21T13:49:43;25.30;37.80
40636;DHT22;26642;55.766;37.828;2022-08-21T13:53:01;25.30;37.70
40636;DHT22;26642;55.766;37.828;2022-08-21T13:55:42;25.30;37.70
40636;DHT22;26642;55.766;37.828;2022-08-21T13:58:11;25.30;37.90
40636;DHT22;26642;55.766;37.828;2022-08-21T14:00:46;25.30;37.90
40636;DHT22;26642;55.766;37.828;2022-08-21T14:03:44;25.30;37.50
40636;DHT22;26642;55.766;37.828;2022-08-21T14:06:20;25.20;37.50
40636;DHT22;26642;55.766;37.828;2022-08-21T14:08:53;25.30;37.90
40636;DHT22;26642;55.766;37.828;2022-08-21T14:11:21;25.30;37.80
40636;DHT22;26642;55.766;37.828;2022-08-21T14:14:16;25.30;38.00
40636;DHT22;26642;55.766;37.828;2022-08-21T14:16:54;25.20;38.60
40636;DHT22;26642;55.766;37.828;2022-08-21T14:22:28;25.20;38.20
40636;DHT22;26642;55.766;37.828;2022-08-21T14:25:10;25.20;38.40
40636;DHT22;26642;55.766;37.828;2022-08-21T14:27:43;25.20;38.60
40636;DHT22;26642;55.766;37.828;2022-08-21T14:30:16;25.20;38.70
40636;DHT22;26642;55.766;37.828;2022-08-21T14:32:43;25.20;38.90
40636;DHT22;26642;55.766;37.828;2022-08-21T14:35:10;25.20;38.50
40636;DHT22;26642;55.766;37.828;2022-08-21T14:37:37;25.20;38.70
40636;DHT22;26642;55.766;37.828;2022-08-21T14:40:04;25.20;38.80
40636;DHT22;26642;55.766;37.828;2022-08-21T14:42:31;25.20;38.90
40636;DHT22;26642;55.766;37.828;2022-08-21T14:45:01;25.20;38.60
40636;DHT22;26642;55.766;37.828;2022-08-21T14:47:28;25.20;38.70
40636;DHT22;26642;55.766;37.828;2022-08-21T14:49:54;25.20;38.90
40636;DHT22;26642;55.766;37.828;2022-08-21T14:52:20;25.20;38.70
40636;DHT22;26642;55.766;37.828;2022-08-21T14:54:48;25.20;38.70
40636;DHT22;26642;55.766;37.828;2022-08-21T14:57:14;25.20;38.80
40636;DHT22;26642;55.766;37.828;2022-08-21T14:59:41;25.20;38.70
40636;DHT22;26642;55.766;37.828;2022-08-21T15:02:08;25.20;39.30
40636;DHT22;26642;55.766;37.828;2022-08-21T15:04:35;25.20;39.00
40636;DHT22;26642;55.766;37.828;2022-08-21T15:07:01;25.20;39.20
40636;DHT22;26642;55.766;37.828;2022-08-21T15:09:27;25.20;39.50
40636;DHT22;26642;55.766;37.828;2022-08-21T15:11:55;25.20;39.00
40636;DHT22;26642;55.766;37.828;2022-08-21T15:14:24;25.20;38.90
40636;DHT22;26642;55.766;37.828;2022-08-21T15:16:52;25.20;39.00
40636;DHT22;26642;55.766;37.828;2022-08-21T15:19:18;25.20;38.80
40636;DHT22;26642;55.766;37.828;2022-08-21T15:21:52;25.10;38.80
40636;DHT22;26642;55.766;37.828;2022-08-21T15:24:26;25.20;39.00
40636;DHT22;26642;55.766;37.828;2022-08-21T15:26:53;25.10;39.20
40636;DHT22;26642;55.766;37.828;2022-08-21T15:29:20;25.10;39.20
40636;DHT22;26642;55.766;37.828;2022-08-21T15:31:57;25.20;39.60
40636;DHT22;26642;55.766;37.828;2022-08-21T15:34:29;25.20;40.00
40636;DHT22;26642;55.766;37.828;2022-08-21T15:36:56;25.20;39.80
40636;DHT22;26642;55.766;37.828;2022-08-21T15:39:24;25.20;40.40
40636;DHT22;26642;55.766;37.828;2022-08-21T15:41:51;25.10;40.50
40636;DHT22;26642;55.766;37.828;2022-08-21T15:44:17;25.20;39.50
40636;DHT22;26642;55.766;37.828;2022-08-21T15:46:43;25.10;39.60
40636;DHT22;26642;55.766;37.828;2022-08-21T15:49:10;25.10;39.60
40636;DHT22;26642;55.766;37.828;2022-08-21T15:51:38;25.10;39.60
40636;DHT22;26642;55.766;37.828;2022-08-21T15:54:04;25.00;39.50
40636;DHT22;26642;55.766;37.828;2022-08-21T15:56:38;25.00;39.80
40636;DHT22;26642;55.766;37.828;2022-08-21T15:59:07;25.00;40.00
40636;DHT22;26642;55.766;37.828;2022-08-21T16:01:35;25.00;40.00
40636;DHT22;26642;55.766;37.828;2022-08-21T16:04:27;25.00;39.90
40636;DHT22;26642;55.766;37.828;2022-08-21T16:06:54;25.00;39.70
40636;DHT22;26642;55.766;37.828;2022-08-21T16:09:20;24.90;39.90
40636;DHT22;26642;55.766;37.828;2022-08-21T16:11:47;24.90;39.80
40636;DHT22;26642;55.766;37.828;2022-08-21T16:14:14;24.90;39.60
40636;DHT22;26642;55.766;37.828;2022-08-21T16:16:41;24.90;40.20
40636;DHT22;26642;55.766;37.828;2022-08-21T16:19:07;24.90;40.00
40636;DHT22;26642;55.766;37.828;2022-08-21T16:21:34;24.80;40.00
40636;DHT22;26642;55.766;37.828;2022-08-21T16:24:00;24.80;39.90
40636;DHT22;26642;55.766;37.828;2022-08-21T16:26:28;24.80;40.40
40636;DHT22;26642;55.766;37.828;2022-08-21T16:28:55;24.80;40.20
40636;DHT22;26642;55.766;37.828;2022-08-21T16:31:23;24.80;40.40
40636;DHT22;26642;55.766;37.828;2022-08-21T16:33:53;24.80;40.20
40636;DHT22;26642;55.766;37.828;2022-08-21T16:36:20;24.80;40.30
40636;DHT22;26642;55.766;37.828;2022-08-21T16:38:47;24.70;40.30
40636;DHT22;26642;55.766;37.828;2022-08-21T16:41:16;24.70;40.40
40636;DHT22;26642;55.766;37.828;2022-08-21T16:43:43;24.70;40.30